Terminal Aerodrome Forecast
Issued by NWS

Home | Current Version | Previous Version | Text Only | Print | Product List | Glossary On
Versions: 1 2 3 4 5 6 7 8 9 10 11 12 13 14 15 16 17
000
FTUS41 KPHI 201728
TAFPNE
TAF
KPNE 201728Z 2018/2118 32004KT P6SM SKC
     FM201900 29005KT P6SM SKC
     FM202100 26005KT P6SM SKC
     FM210100 VRB03KT P6SM SKC
     FM211500 19006KT P6SM FEW040=

USA.gov is the U.S. government's official web portal to all federal, state and local government web resources and services.